sensor_id;sensor_type;location;lat;lon;timestamp;P1;durP1;ratioP1;P2;durP2;ratioP2
12871;SDS011;6504;53.766;9.626;2022-08-19T00:02:02;15.90;;;14.30;;
12871;SDS011;6504;53.766;9.626;2022-08-19T00:04:32;17.17;;;15.23;;
12871;SDS011;6504;53.766;9.626;2022-08-19T00:07:03;16.93;;;13.93;;
12871;SDS011;6504;53.766;9.626;2022-08-19T00:09:34;17.53;;;15.17;;
12871;SDS011;6504;53.766;9.626;2022-08-19T00:12:03;17.57;;;14.97;;
12871;SDS011;6504;53.766;9.626;2022-08-19T00:14:33;15.40;;;12.97;;
12871;SDS011;6504;53.766;9.626;2022-08-19T00:17:02;14.37;;;12.87;;
12871;SDS011;6504;53.766;9.626;2022-08-19T00:19:30;14.70;;;12.40;;
12871;SDS011;6504;53.766;9.626;2022-08-19T00:22:02;18.57;;;13.83;;
12871;SDS011;6504;53.766;9.626;2022-08-19T00:24:31;18.00;;;13.73;;
12871;SDS011;6504;53.766;9.626;2022-08-19T00:27:15;21.23;;;14.37;;
12871;SDS011;6504;53.766;9.626;2022-08-19T00:29:54;16.60;;;11.97;;
12871;SDS011;6504;53.766;9.626;2022-08-19T00:32:23;18.50;;;12.83;;
12871;SDS011;6504;53.766;9.626;2022-08-19T00:34:55;18.90;;;13.07;;
12871;SDS011;6504;53.766;9.626;2022-08-19T00:37:24;23.00;;;14.67;;
12871;SDS011;6504;53.766;9.626;2022-08-19T00:39:57;18.27;;;14.00;;
12871;SDS011;6504;53.766;9.626;2022-08-19T00:42:25;18.00;;;13.40;;
12871;SDS011;6504;53.766;9.626;2022-08-19T00:44:58;17.40;;;13.47;;
12871;SDS011;6504;53.766;9.626;2022-08-19T00:47:26;24.40;;;15.13;;
12871;SDS011;6504;53.766;9.626;2022-08-19T00:49:56;24.93;;;15.30;;
12871;SDS011;6504;53.766;9.626;2022-08-19T00:52:26;21.43;;;14.53;;
12871;SDS011;6504;53.766;9.626;2022-08-19T00:54:58;19.27;;;13.83;;
12871;SDS011;6504;53.766;9.626;2022-08-19T00:57:29;21.10;;;13.40;;
12871;SDS011;6504;53.766;9.626;2022-08-19T01:00:03;21.27;;;13.17;;
12871;SDS011;6504;53.766;9.626;2022-08-19T01:02:37;20.40;;;14.20;;
12871;SDS011;6504;53.766;9.626;2022-08-19T01:05:06;21.50;;;12.77;;
12871;SDS011;6504;53.766;9.626;2022-08-19T01:07:42;18.93;;;13.23;;
12871;SDS011;6504;53.766;9.626;2022-08-19T01:10:13;17.80;;;13.17;;
12871;SDS011;6504;53.766;9.626;2022-08-19T01:12:45;19.83;;;13.90;;
12871;SDS011;6504;53.766;9.626;2022-08-19T01:15:17;21.27;;;14.20;;
12871;SDS011;6504;53.766;9.626;2022-08-19T01:17:49;24.07;;;13.87;;
12871;SDS011;6504;53.766;9.626;2022-08-19T01:20:22;19.13;;;13.13;;
12871;SDS011;6504;53.766;9.626;2022-08-19T01:22:53;20.13;;;13.97;;
12871;SDS011;6504;53.766;9.626;2022-08-19T01:25:27;21.67;;;13.87;;
12871;SDS011;6504;53.766;9.626;2022-08-19T01:27:58;23.47;;;14.57;;
12871;SDS011;6504;53.766;9.626;2022-08-19T01:30:36;23.73;;;15.37;;
12871;SDS011;6504;53.766;9.626;2022-08-19T01:33:13;22.03;;;15.33;;
12871;SDS011;6504;53.766;9.626;2022-08-19T01:35:41;23.07;;;15.80;;
12871;SDS011;6504;53.766;9.626;2022-08-19T01:38:18;24.33;;;15.53;;
12871;SDS011;6504;53.766;9.626;2022-08-19T01:40:49;24.77;;;15.80;;
12871;SDS011;6504;53.766;9.626;2022-08-19T01:43:18;22.13;;;14.90;;
12871;SDS011;6504;53.766;9.626;2022-08-19T01:45:47;22.17;;;15.13;;
12871;SDS011;6504;53.766;9.626;2022-08-19T01:48:15;23.67;;;15.33;;
12871;SDS011;6504;53.766;9.626;2022-08-19T01:50:43;22.00;;;15.20;;
12871;SDS011;6504;53.766;9.626;2022-08-19T01:53:12;20.97;;;14.30;;
12871;SDS011;6504;53.766;9.626;2022-08-19T01:55:42;21.93;;;14.77;;
12871;SDS011;6504;53.766;9.626;2022-08-19T01:58:14;20.10;;;14.43;;
12871;SDS011;6504;53.766;9.626;2022-08-19T02:00:47;19.40;;;14.50;;
12871;SDS011;6504;53.766;9.626;2022-08-19T02:03:18;19.70;;;14.50;;
12871;SDS011;6504;53.766;9.626;2022-08-19T02:05:46;18.10;;;13.43;;
12871;SDS011;6504;53.766;9.626;2022-08-19T02:08:19;16.80;;;13.30;;
12871;SDS011;6504;53.766;9.626;2022-08-19T02:10:47;15.20;;;12.47;;
12871;SDS011;6504;53.766;9.626;2022-08-19T02:13:19;16.47;;;13.50;;
12871;SDS011;6504;53.766;9.626;2022-08-19T02:15:51;18.57;;;13.17;;
12871;SDS011;6504;53.766;9.626;2022-08-19T02:18:20;14.83;;;12.23;;
12871;SDS011;6504;53.766;9.626;2022-08-19T02:20:53;14.40;;;12.40;;
12871;SDS011;6504;53.766;9.626;2022-08-19T02:23:22;17.90;;;12.97;;
12871;SDS011;6504;53.766;9.626;2022-08-19T02:25:51;16.13;;;12.70;;
12871;SDS011;6504;53.766;9.626;2022-08-19T02:28:19;17.20;;;12.97;;
12871;SDS011;6504;53.766;9.626;2022-08-19T02:30:50;14.13;;;11.63;;
12871;SDS011;6504;53.766;9.626;2022-08-19T02:33:18;15.27;;;12.20;;
12871;SDS011;6504;53.766;9.626;2022-08-19T02:35:46;17.80;;;12.40;;
12871;SDS011;6504;53.766;9.626;2022-08-19T02:38:14;16.57;;;12.50;;
12871;SDS011;6504;53.766;9.626;2022-08-19T02:40:56;18.37;;;13.40;;
12871;SDS011;6504;53.766;9.626;2022-08-19T02:43:26;17.03;;;13.20;;
12871;SDS011;6504;53.766;9.626;2022-08-19T02:46:00;20.07;;;14.40;;
12871;SDS011;6504;53.766;9.626;2022-08-19T02:48:28;20.03;;;13.30;;
12871;SDS011;6504;53.766;9.626;2022-08-19T02:50:59;16.63;;;13.63;;
12871;SDS011;6504;53.766;9.626;2022-08-19T02:53:27;21.70;;;14.30;;
12871;SDS011;6504;53.766;9.626;2022-08-19T02:55:59;18.03;;;14.00;;
12871;SDS011;6504;53.766;9.626;2022-08-19T02:58:27;19.77;;;15.50;;
12871;SDS011;6504;53.766;9.626;2022-08-19T03:00:56;22.83;;;14.50;;
12871;SDS011;6504;53.766;9.626;2022-08-19T03:03:25;18.40;;;14.47;;
12871;SDS011;6504;53.766;9.626;2022-08-19T03:06:02;19.23;;;13.50;;
12871;SDS011;6504;53.766;9.626;2022-08-19T03:08:34;20.67;;;14.57;;
12871;SDS011;6504;53.766;9.626;2022-08-19T03:11:04;22.33;;;14.33;;
12871;SDS011;6504;53.766;9.626;2022-08-19T03:13:33;21.63;;;14.97;;
12871;SDS011;6504;53.766;9.626;2022-08-19T03:16:05;27.60;;;17.37;;
12871;SDS011;6504;53.766;9.626;2022-08-19T03:18:33;25.57;;;17.63;;
12871;SDS011;6504;53.766;9.626;2022-08-19T03:21:01;26.97;;;17.37;;
12871;SDS011;6504;53.766;9.626;2022-08-19T03:23:30;23.57;;;16.63;;
12871;SDS011;6504;53.766;9.626;2022-08-19T03:25:58;21.87;;;15.60;;
12871;SDS011;6504;53.766;9.626;2022-08-19T03:28:43;17.17;;;14.43;;
12871;SDS011;6504;53.766;9.626;2022-08-19T03:31:23;18.17;;;14.53;;
12871;SDS011;6504;53.766;9.626;2022-08-19T03:34:13;17.03;;;14.23;;
12871;SDS011;6504;53.766;9.626;2022-08-19T03:36:46;16.43;;;14.13;;
12871;SDS011;6504;53.766;9.626;2022-08-19T03:39:15;17.57;;;15.00;;
12871;SDS011;6504;53.766;9.626;2022-08-19T03:41:44;15.33;;;13.73;;
12871;SDS011;6504;53.766;9.626;2022-08-19T03:44:16;15.00;;;13.00;;
12871;SDS011;6504;53.766;9.626;2022-08-19T03:46:49;14.90;;;13.30;;
12871;SDS011;6504;53.766;9.626;2022-08-19T03:49:19;16.97;;;14.23;;
12871;SDS011;6504;53.766;9.626;2022-08-19T03:51:54;17.93;;;13.60;;
12871;SDS011;6504;53.766;9.626;2022-08-19T03:54:24;18.00;;;15.40;;
12871;SDS011;6504;53.766;9.626;2022-08-19T03:56:56;15.83;;;14.03;;
12871;SDS011;6504;53.766;9.626;2022-08-19T03:59:29;17.27;;;14.23;;
12871;SDS011;6504;53.766;9.626;2022-08-19T04:02:00;15.17;;;13.60;;
12871;SDS011;6504;53.766;9.626;2022-08-19T04:04:29;15.90;;;14.00;;
12871;SDS011;6504;53.766;9.626;2022-08-19T04:07:00;16.63;;;14.20;;
12871;SDS011;6504;53.766;9.626;2022-08-19T04:09:28;18.37;;;13.57;;
12871;SDS011;6504;53.766;9.626;2022-08-19T04:11:56;14.80;;;13.27;;
12871;SDS011;6504;53.766;9.626;2022-08-19T04:14:28;16.03;;;14.30;;
12871;SDS011;6504;53.766;9.626;2022-08-19T04:17:01;15.17;;;13.67;;
12871;SDS011;6504;53.766;9.626;2022-08-19T04:19:49;15.37;;;13.77;;
12871;SDS011;6504;53.766;9.626;2022-08-19T04:22:35;17.20;;;14.43;;
12871;SDS011;6504;53.766;9.626;2022-08-19T04:25:20;16.30;;;14.60;;
12871;SDS011;6504;53.766;9.626;2022-08-19T04:28:06;17.50;;;15.60;;
12871;SDS011;6504;53.766;9.626;2022-08-19T04:30:54;14.90;;;13.37;;
12871;SDS011;6504;53.766;9.626;2022-08-19T04:33:41;15.63;;;14.03;;
12871;SDS011;6504;53.766;9.626;2022-08-19T04:36:28;16.23;;;14.60;;
12871;SDS011;6504;53.766;9.626;2022-08-19T04:39:16;15.00;;;13.47;;
12871;SDS011;6504;53.766;9.626;2022-08-19T04:42:06;16.90;;;15.13;;
12871;SDS011;6504;53.766;9.626;2022-08-19T04:45:10;18.60;;;16.23;;
12871;SDS011;6504;53.766;9.626;2022-08-19T04:47:59;17.60;;;15.67;;
12871;SDS011;6504;53.766;9.626;2022-08-19T04:50:49;17.47;;;15.67;;
12871;SDS011;6504;53.766;9.626;2022-08-19T04:53:41;16.73;;;15.00;;
12871;SDS011;6504;53.766;9.626;2022-08-19T04:56:27;17.90;;;16.10;;
12871;SDS011;6504;53.766;9.626;2022-08-19T04:59:13;17.20;;;15.47;;
12871;SDS011;6504;53.766;9.626;2022-08-19T05:01:59;17.37;;;15.60;;
12871;SDS011;6504;53.766;9.626;2022-08-19T05:04:48;17.33;;;15.57;;
12871;SDS011;6504;53.766;9.626;2022-08-19T05:07:34;17.67;;;15.87;;
12871;SDS011;6504;53.766;9.626;2022-08-19T05:10:20;17.67;;;15.90;;
12871;SDS011;6504;53.766;9.626;2022-08-19T05:13:06;17.93;;;15.80;;
12871;SDS011;6504;53.766;9.626;2022-08-19T05:15:53;17.63;;;15.83;;
12871;SDS011;6504;53.766;9.626;2022-08-19T05:18:40;15.67;;;13.93;;
12871;SDS011;6504;53.766;9.626;2022-08-19T05:21:45;17.43;;;15.70;;
12871;SDS011;6504;53.766;9.626;2022-08-19T05:24:49;17.30;;;15.50;;
12871;SDS011;6504;53.766;9.626;2022-08-19T05:27:35;15.63;;;14.13;;
12871;SDS011;6504;53.766;9.626;2022-08-19T05:30:21;16.50;;;14.83;;
12871;SDS011;6504;53.766;9.626;2022-08-19T05:33:09;16.93;;;15.23;;
12871;SDS011;6504;53.766;9.626;2022-08-19T05:35:55;15.43;;;13.93;;
12871;SDS011;6504;53.766;9.626;2022-08-19T05:38:43;16.10;;;14.50;;
12871;SDS011;6504;53.766;9.626;2022-08-19T05:41:29;15.90;;;14.30;;
12871;SDS011;6504;53.766;9.626;2022-08-19T05:44:14;17.67;;;15.53;;
12871;SDS011;6504;53.766;9.626;2022-08-19T05:47:01;16.13;;;14.57;;
12871;SDS011;6504;53.766;9.626;2022-08-19T05:49:54;15.63;;;14.20;;
12871;SDS011;6504;53.766;9.626;2022-08-19T05:52:40;15.73;;;14.27;;
12871;SDS011;6504;53.766;9.626;2022-08-19T05:55:27;15.07;;;13.57;;
12871;SDS011;6504;53.766;9.626;2022-08-19T05:58:12;16.47;;;14.87;;
12871;SDS011;6504;53.766;9.626;2022-08-19T06:00:58;16.27;;;14.60;;
12871;SDS011;6504;53.766;9.626;2022-08-19T06:03:48;14.40;;;13.00;;
12871;SDS011;6504;53.766;9.626;2022-08-19T06:06:34;14.63;;;13.23;;
12871;SDS011;6504;53.766;9.626;2022-08-19T06:09:21;16.63;;;15.03;;
12871;SDS011;6504;53.766;9.626;2022-08-19T06:12:09;16.00;;;14.47;;
12871;SDS011;6504;53.766;9.626;2022-08-19T06:14:54;16.93;;;15.33;;
12871;SDS011;6504;53.766;9.626;2022-08-19T06:17:41;17.17;;;15.37;;
12871;SDS011;6504;53.766;9.626;2022-08-19T06:20:27;18.70;;;16.03;;
12871;SDS011;6504;53.766;9.626;2022-08-19T06:23:17;19.43;;;17.33;;
12871;SDS011;6504;53.766;9.626;2022-08-19T06:26:03;19.07;;;17.13;;
12871;SDS011;6504;53.766;9.626;2022-08-19T06:28:50;20.97;;;18.67;;
12871;SDS011;6504;53.766;9.626;2022-08-19T06:31:36;20.87;;;18.60;;
12871;SDS011;6504;53.766;9.626;2022-08-19T06:34:22;22.87;;;19.70;;
12871;SDS011;6504;53.766;9.626;2022-08-19T06:37:10;25.37;;;21.27;;
12871;SDS011;6504;53.766;9.626;2022-08-19T06:39:59;25.07;;;21.77;;
12871;SDS011;6504;53.766;9.626;2022-08-19T06:42:44;24.10;;;21.50;;
12871;SDS011;6504;53.766;9.626;2022-08-19T06:45:31;26.07;;;22.60;;
12871;SDS011;6504;53.766;9.626;2022-08-19T06:48:18;28.00;;;24.33;;
12871;SDS011;6504;53.766;9.626;2022-08-19T06:51:06;28.80;;;24.73;;
12871;SDS011;6504;53.766;9.626;2022-08-19T06:53:53;29.60;;;26.37;;
12871;SDS011;6504;53.766;9.626;2022-08-19T06:56:40;29.70;;;25.50;;
12871;SDS011;6504;53.766;9.626;2022-08-19T06:59:27;30.90;;;26.87;;
12871;SDS011;6504;53.766;9.626;2022-08-19T07:02:17;27.10;;;24.20;;
12871;SDS011;6504;53.766;9.626;2022-08-19T07:05:10;27.73;;;24.90;;
12871;SDS011;6504;53.766;9.626;2022-08-19T07:07:55;31.13;;;25.47;;
12871;SDS011;6504;53.766;9.626;2022-08-19T07:10:44;31.23;;;25.67;;
12871;SDS011;6504;53.766;9.626;2022-08-19T07:13:30;29.07;;;25.90;;
12871;SDS011;6504;53.766;9.626;2022-08-19T07:16:18;26.97;;;24.13;;
12871;SDS011;6504;53.766;9.626;2022-08-19T07:19:06;28.80;;;25.23;;
12871;SDS011;6504;53.766;9.626;2022-08-19T07:21:51;27.97;;;24.90;;
12871;SDS011;6504;53.766;9.626;2022-08-19T07:24:40;31.00;;;27.37;;
12871;SDS011;6504;53.766;9.626;2022-08-19T07:27:26;31.03;;;27.73;;
12871;SDS011;6504;53.766;9.626;2022-08-19T07:30:11;33.13;;;28.77;;
12871;SDS011;6504;53.766;9.626;2022-08-19T07:32:57;31.70;;;28.30;;
12871;SDS011;6504;53.766;9.626;2022-08-19T07:35:49;28.30;;;25.23;;
12871;SDS011;6504;53.766;9.626;2022-08-19T07:38:35;32.13;;;28.57;;
12871;SDS011;6504;53.766;9.626;2022-08-19T07:41:21;28.20;;;25.30;;
12871;SDS011;6504;53.766;9.626;2022-08-19T07:44:09;28.50;;;25.57;;
12871;SDS011;6504;53.766;9.626;2022-08-19T07:46:59;31.93;;;28.53;;
12871;SDS011;6504;53.766;9.626;2022-08-19T07:49:45;30.70;;;27.50;;
12871;SDS011;6504;53.766;9.626;2022-08-19T07:52:32;29.13;;;26.10;;
12871;SDS011;6504;53.766;9.626;2022-08-19T07:55:24;30.97;;;26.67;;
12871;SDS011;6504;53.766;9.626;2022-08-19T07:58:11;30.87;;;27.63;;
12871;SDS011;6504;53.766;9.626;2022-08-19T08:01:02;30.47;;;27.30;;
12871;SDS011;6504;53.766;9.626;2022-08-19T08:03:50;29.47;;;26.27;;
12871;SDS011;6504;53.766;9.626;2022-08-19T08:06:55;25.77;;;23.27;;
12871;SDS011;6504;53.766;9.626;2022-08-19T08:09:59;25.10;;;22.60;;
12871;SDS011;6504;53.766;9.626;2022-08-19T08:12:46;26.23;;;23.47;;
12871;SDS011;6504;53.766;9.626;2022-08-19T08:15:32;25.57;;;22.80;;
12871;SDS011;6504;53.766;9.626;2022-08-19T08:18:17;25.53;;;21.07;;
12871;SDS011;6504;53.766;9.626;2022-08-19T08:21:04;21.87;;;18.20;;
12871;SDS011;6504;53.766;9.626;2022-08-19T08:23:49;23.97;;;20.10;;
12871;SDS011;6504;53.766;9.626;2022-08-19T08:26:40;26.73;;;21.37;;
12871;SDS011;6504;53.766;9.626;2022-08-19T08:29:27;24.27;;;20.93;;
12871;SDS011;6504;53.766;9.626;2022-08-19T08:32:15;25.47;;;22.70;;
12871;SDS011;6504;53.766;9.626;2022-08-19T08:35:00;24.50;;;22.10;;
12871;SDS011;6504;53.766;9.626;2022-08-19T08:37:47;24.47;;;22.17;;
12871;SDS011;6504;53.766;9.626;2022-08-19T08:40:39;23.40;;;21.00;;
12871;SDS011;6504;53.766;9.626;2022-08-19T08:43:33;20.90;;;18.90;;
12871;SDS011;6504;53.766;9.626;2022-08-19T08:46:22;20.03;;;17.30;;
12871;SDS011;6504;53.766;9.626;2022-08-19T08:49:16;18.80;;;17.00;;
12871;SDS011;6504;53.766;9.626;2022-08-19T08:52:11;19.93;;;17.53;;
12871;SDS011;6504;53.766;9.626;2022-08-19T08:55:05;17.87;;;16.03;;
12871;SDS011;6504;53.766;9.626;2022-08-19T08:57:54;18.87;;;16.03;;
12871;SDS011;6504;53.766;9.626;2022-08-19T09:00:49;19.63;;;16.83;;
12871;SDS011;6504;53.766;9.626;2022-08-19T09:03:36;16.60;;;14.80;;
12871;SDS011;6504;53.766;9.626;2022-08-19T09:06:25;17.10;;;15.30;;
12871;SDS011;6504;53.766;9.626;2022-08-19T09:09:22;14.83;;;13.17;;
12871;SDS011;6504;53.766;9.626;2022-08-19T09:12:17;13.17;;;11.77;;
12871;SDS011;6504;53.766;9.626;2022-08-19T09:15:18;13.43;;;12.03;;
12871;SDS011;6504;53.766;9.626;2022-08-19T09:18:12;13.20;;;11.87;;
12871;SDS011;6504;53.766;9.626;2022-08-19T09:20:58;12.00;;;10.80;;
12871;SDS011;6504;53.766;9.626;2022-08-19T09:23:49;13.10;;;11.70;;
12871;SDS011;6504;53.766;9.626;2022-08-19T09:26:35;13.50;;;11.20;;
12871;SDS011;6504;53.766;9.626;2022-08-19T09:29:20;12.40;;;10.97;;
12871;SDS011;6504;53.766;9.626;2022-08-19T09:32:06;13.33;;;11.90;;
12871;SDS011;6504;53.766;9.626;2022-08-19T09:34:53;12.43;;;11.20;;
12871;SDS011;6504;53.766;9.626;2022-08-19T09:37:42;11.80;;;10.70;;
12871;SDS011;6504;53.766;9.626;2022-08-19T09:40:30;12.70;;;11.43;;
12871;SDS011;6504;53.766;9.626;2022-08-19T09:43:16;12.87;;;11.60;;
12871;SDS011;6504;53.766;9.626;2022-08-19T09:46:02;11.83;;;10.83;;
12871;SDS011;6504;53.766;9.626;2022-08-19T09:48:50;11.77;;;10.53;;
12871;SDS011;6504;53.766;9.626;2022-08-19T09:51:41;11.50;;;10.50;;
12871;SDS011;6504;53.766;9.626;2022-08-19T09:54:26;11.80;;;10.60;;
12871;SDS011;6504;53.766;9.626;2022-08-19T09:57:12;13.03;;;11.70;;
12871;SDS011;6504;53.766;9.626;2022-08-19T09:59:58;13.00;;;11.73;;
12871;SDS011;6504;53.766;9.626;2022-08-19T10:02:44;13.20;;;11.90;;
12871;SDS011;6504;53.766;9.626;2022-08-19T10:05:29;11.80;;;10.67;;
12871;SDS011;6504;53.766;9.626;2022-08-19T10:08:39;14.27;;;12.77;;
12871;SDS011;6504;53.766;9.626;2022-08-19T10:11:25;13.70;;;12.50;;
12871;SDS011;6504;53.766;9.626;2022-08-19T10:14:11;14.23;;;12.57;;
12871;SDS011;6504;53.766;9.626;2022-08-19T10:16:57;13.60;;;12.40;;
12871;SDS011;6504;53.766;9.626;2022-08-19T10:19:47;12.73;;;11.60;;
12871;SDS011;6504;53.766;9.626;2022-08-19T10:22:32;14.13;;;12.83;;
12871;SDS011;6504;53.766;9.626;2022-08-19T10:25:21;15.57;;;14.17;;
12871;SDS011;6504;53.766;9.626;2022-08-19T10:28:07;15.20;;;13.70;;
12871;SDS011;6504;53.766;9.626;2022-08-19T10:30:54;14.60;;;13.20;;
12871;SDS011;6504;53.766;9.626;2022-08-19T10:33:40;14.00;;;12.60;;
12871;SDS011;6504;53.766;9.626;2022-08-19T10:36:33;14.43;;;13.13;;
12871;SDS011;6504;53.766;9.626;2022-08-19T10:39:20;13.47;;;12.07;;
12871;SDS011;6504;53.766;9.626;2022-08-19T10:42:07;12.40;;;11.20;;
12871;SDS011;6504;53.766;9.626;2022-08-19T10:44:54;13.90;;;12.67;;
12871;SDS011;6504;53.766;9.626;2022-08-19T10:47:39;13.40;;;12.20;;
12871;SDS011;6504;53.766;9.626;2022-08-19T10:50:25;13.67;;;12.43;;
12871;SDS011;6504;53.766;9.626;2022-08-19T10:53:36;12.77;;;11.57;;
12871;SDS011;6504;53.766;9.626;2022-08-19T10:56:22;13.57;;;12.37;;
12871;SDS011;6504;53.766;9.626;2022-08-19T10:59:29;15.07;;;13.77;;
12871;SDS011;6504;53.766;9.626;2022-08-19T11:02:14;14.83;;;13.43;;
12871;SDS011;6504;53.766;9.626;2022-08-19T11:05:00;15.40;;;13.90;;
12871;SDS011;6504;53.766;9.626;2022-08-19T11:07:46;15.97;;;14.37;;
12871;SDS011;6504;53.766;9.626;2022-08-19T11:10:33;25.17;;;15.40;;
12871;SDS011;6504;53.766;9.626;2022-08-19T11:13:20;16.87;;;14.60;;
12871;SDS011;6504;53.766;9.626;2022-08-19T11:16:09;15.40;;;13.83;;
12871;SDS011;6504;53.766;9.626;2022-08-19T11:18:59;14.87;;;13.47;;
12871;SDS011;6504;53.766;9.626;2022-08-19T11:21:46;14.50;;;13.20;;
12871;SDS011;6504;53.766;9.626;2022-08-19T11:24:33;14.90;;;13.33;;
12871;SDS011;6504;53.766;9.626;2022-08-19T11:27:18;15.50;;;13.97;;
12871;SDS011;6504;53.766;9.626;2022-08-19T11:30:07;14.40;;;13.03;;
12871;SDS011;6504;53.766;9.626;2022-08-19T11:32:55;14.87;;;13.47;;
12871;SDS011;6504;53.766;9.626;2022-08-19T11:35:41;15.50;;;13.97;;
12871;SDS011;6504;53.766;9.626;2022-08-19T11:38:26;15.40;;;13.80;;
12871;SDS011;6504;53.766;9.626;2022-08-19T11:41:12;14.10;;;12.83;;
12871;SDS011;6504;53.766;9.626;2022-08-19T11:43:58;15.13;;;13.70;;
12871;SDS011;6504;53.766;9.626;2022-08-19T11:46:44;13.00;;;11.80;;
12871;SDS011;6504;53.766;9.626;2022-08-19T11:49:34;10.83;;;9.90;;
12871;SDS011;6504;53.766;9.626;2022-08-19T11:52:19;10.67;;;9.67;;
12871;SDS011;6504;53.766;9.626;2022-08-19T11:55:06;14.97;;;13.73;;
12871;SDS011;6504;53.766;9.626;2022-08-19T11:57:52;14.20;;;12.77;;
12871;SDS011;6504;53.766;9.626;2022-08-19T12:00:38;13.93;;;12.70;;
12871;SDS011;6504;53.766;9.626;2022-08-19T12:03:24;14.63;;;13.27;;
12871;SDS011;6504;53.766;9.626;2022-08-19T12:06:13;14.70;;;13.40;;
12871;SDS011;6504;53.766;9.626;2022-08-19T12:09:02;14.00;;;12.70;;
12871;SDS011;6504;53.766;9.626;2022-08-19T12:11:53;13.23;;;12.23;;
12871;SDS011;6504;53.766;9.626;2022-08-19T12:14:39;13.77;;;12.67;;
12871;SDS011;6504;53.766;9.626;2022-08-19T12:17:27;15.13;;;13.83;;
12871;SDS011;6504;53.766;9.626;2022-08-19T12:20:14;15.03;;;13.67;;
12871;SDS011;6504;53.766;9.626;2022-08-19T12:23:02;15.37;;;14.10;;
12871;SDS011;6504;53.766;9.626;2022-08-19T12:25:48;15.00;;;13.70;;
12871;SDS011;6504;53.766;9.626;2022-08-19T12:28:35;17.83;;;16.30;;
12871;SDS011;6504;53.766;9.626;2022-08-19T12:31:21;17.40;;;15.60;;
12871;SDS011;6504;53.766;9.626;2022-08-19T12:34:07;16.77;;;15.27;;
12871;SDS011;6504;53.766;9.626;2022-08-19T12:36:53;15.63;;;14.17;;
12871;SDS011;6504;53.766;9.626;2022-08-19T12:39:40;16.40;;;14.87;;
12871;SDS011;6504;53.766;9.626;2022-08-19T12:42:30;15.57;;;14.20;;
12871;SDS011;6504;53.766;9.626;2022-08-19T12:45:15;15.10;;;13.80;;
12871;SDS011;6504;53.766;9.626;2022-08-19T12:48:01;16.13;;;14.53;;
12871;SDS011;6504;53.766;9.626;2022-08-19T12:50:48;16.80;;;15.30;;
12871;SDS011;6504;53.766;9.626;2022-08-19T12:53:33;17.23;;;15.80;;
12871;SDS011;6504;53.766;9.626;2022-08-19T12:56:21;15.23;;;13.93;;
12871;SDS011;6504;53.766;9.626;2022-08-19T12:59:06;15.07;;;13.77;;
12871;SDS011;6504;53.766;9.626;2022-08-19T13:01:52;14.70;;;13.30;;
12871;SDS011;6504;53.766;9.626;2022-08-19T13:04:38;13.67;;;12.53;;
12871;SDS011;6504;53.766;9.626;2022-08-19T13:07:25;14.13;;;12.83;;
12871;SDS011;6504;53.766;9.626;2022-08-19T13:10:11;12.03;;;10.93;;
12871;SDS011;6504;53.766;9.626;2022-08-19T13:13:03;13.27;;;12.07;;
12871;SDS011;6504;53.766;9.626;2022-08-19T13:15:50;14.00;;;12.70;;
12871;SDS011;6504;53.766;9.626;2022-08-19T13:18:37;12.63;;;11.30;;
12871;SDS011;6504;53.766;9.626;2022-08-19T13:21:25;12.37;;;11.20;;
12871;SDS011;6504;53.766;9.626;2022-08-19T13:24:13;13.07;;;11.87;;
12871;SDS011;6504;53.766;9.626;2022-08-19T13:26:59;13.70;;;12.43;;
12871;SDS011;6504;53.766;9.626;2022-08-19T13:29:50;12.07;;;11.10;;
12871;SDS011;6504;53.766;9.626;2022-08-19T13:32:53;13.57;;;12.37;;
12871;SDS011;6504;53.766;9.626;2022-08-19T13:36:01;12.27;;;11.07;;
12871;SDS011;6504;53.766;9.626;2022-08-19T13:38:50;13.53;;;12.33;;
12871;SDS011;6504;53.766;9.626;2022-08-19T13:41:36;11.93;;;11.00;;
12871;SDS011;6504;53.766;9.626;2022-08-19T13:44:22;13.50;;;12.40;;
12871;SDS011;6504;53.766;9.626;2022-08-19T13:47:09;12.47;;;11.40;;
12871;SDS011;6504;53.766;9.626;2022-08-19T13:49:56;13.00;;;11.90;;
12871;SDS011;6504;53.766;9.626;2022-08-19T13:52:44;12.53;;;11.47;;
12871;SDS011;6504;53.766;9.626;2022-08-19T13:55:31;12.93;;;11.83;;
12871;SDS011;6504;53.766;9.626;2022-08-19T13:58:18;12.53;;;11.53;;
12871;SDS011;6504;53.766;9.626;2022-08-19T14:01:03;12.90;;;11.73;;
12871;SDS011;6504;53.766;9.626;2022-08-19T14:03:51;12.40;;;11.40;;
12871;SDS011;6504;53.766;9.626;2022-08-19T14:06:38;13.07;;;11.87;;
12871;SDS011;6504;53.766;9.626;2022-08-19T14:09:23;14.37;;;13.07;;
12871;SDS011;6504;53.766;9.626;2022-08-19T14:12:09;12.50;;;11.50;;
12871;SDS011;6504;53.766;9.626;2022-08-19T14:14:55;12.93;;;11.83;;
12871;SDS011;6504;53.766;9.626;2022-08-19T14:17:41;13.80;;;12.60;;
12871;SDS011;6504;53.766;9.626;2022-08-19T14:20:31;13.20;;;12.00;;
12871;SDS011;6504;53.766;9.626;2022-08-19T14:23:18;14.27;;;12.97;;
12871;SDS011;6504;53.766;9.626;2022-08-19T14:26:08;14.10;;;13.00;;
12871;SDS011;6504;53.766;9.626;2022-08-19T14:28:55;13.07;;;11.97;;
12871;SDS011;6504;53.766;9.626;2022-08-19T14:31:41;12.20;;;11.07;;
12871;SDS011;6504;53.766;9.626;2022-08-19T14:34:27;12.30;;;11.30;;
12871;SDS011;6504;53.766;9.626;2022-08-19T14:37:16;12.50;;;11.50;;
12871;SDS011;6504;53.766;9.626;2022-08-19T14:40:03;11.83;;;10.83;;
12871;SDS011;6504;53.766;9.626;2022-08-19T14:42:49;12.60;;;11.60;;
12871;SDS011;6504;53.766;9.626;2022-08-19T14:45:36;13.43;;;12.33;;
12871;SDS011;6504;53.766;9.626;2022-08-19T14:48:26;14.00;;;12.80;;
12871;SDS011;6504;53.766;9.626;2022-08-19T14:51:12;16.53;;;14.93;;
12871;SDS011;6504;53.766;9.626;2022-08-19T14:54:00;15.03;;;13.83;;
12871;SDS011;6504;53.766;9.626;2022-08-19T14:56:45;14.77;;;13.57;;
12871;SDS011;6504;53.766;9.626;2022-08-19T14:59:31;15.50;;;14.20;;
12871;SDS011;6504;53.766;9.626;2022-08-19T15:02:19;15.83;;;14.33;;
12871;SDS011;6504;53.766;9.626;2022-08-19T15:05:05;13.37;;;12.27;;
12871;SDS011;6504;53.766;9.626;2022-08-19T15:07:54;13.50;;;12.23;;
12871;SDS011;6504;53.766;9.626;2022-08-19T15:10:44;11.67;;;10.73;;
12871;SDS011;6504;53.766;9.626;2022-08-19T15:13:31;14.23;;;13.00;;
12871;SDS011;6504;53.766;9.626;2022-08-19T15:16:17;12.30;;;11.20;;
12871;SDS011;6504;53.766;9.626;2022-08-19T15:19:04;11.43;;;10.43;;
12871;SDS011;6504;53.766;9.626;2022-08-19T15:21:50;14.90;;;13.50;;
12871;SDS011;6504;53.766;9.626;2022-08-19T15:24:38;12.93;;;11.80;;
12871;SDS011;6504;53.766;9.626;2022-08-19T15:27:34;13.23;;;12.13;;
12871;SDS011;6504;53.766;9.626;2022-08-19T15:30:21;11.97;;;10.87;;
12871;SDS011;6504;53.766;9.626;2022-08-19T15:33:07;12.77;;;11.73;;
12871;SDS011;6504;53.766;9.626;2022-08-19T15:35:57;11.13;;;10.20;;
12871;SDS011;6504;53.766;9.626;2022-08-19T15:38:48;11.80;;;10.90;;
12871;SDS011;6504;53.766;9.626;2022-08-19T15:41:36;11.67;;;10.67;;
12871;SDS011;6504;53.766;9.626;2022-08-19T15:44:25;9.13;;;8.43;;
12871;SDS011;6504;53.766;9.626;2022-08-19T15:47:10;10.67;;;9.77;;
12871;SDS011;6504;53.766;9.626;2022-08-19T15:49:56;9.27;;;8.53;;
12871;SDS011;6504;53.766;9.626;2022-08-19T15:52:46;10.00;;;9.20;;
12871;SDS011;6504;53.766;9.626;2022-08-19T15:55:35;9.57;;;8.87;;
12871;SDS011;6504;53.766;9.626;2022-08-19T15:58:26;11.47;;;10.50;;
12871;SDS011;6504;53.766;9.626;2022-08-19T16:01:31;11.30;;;10.40;;
12871;SDS011;6504;53.766;9.626;2022-08-19T16:04:35;10.00;;;9.10;;
12871;SDS011;6504;53.766;9.626;2022-08-19T16:07:38;9.10;;;8.40;;
12871;SDS011;6504;53.766;9.626;2022-08-19T16:10:24;10.70;;;9.70;;
12871;SDS011;6504;53.766;9.626;2022-08-19T16:13:10;10.70;;;9.80;;